Time;durP1;ratioP1;P1;durP2;ratioP2;P2;SDS_P1;SDS_P2;PMS_P1;PMS_P2;Temp;Humidity;BMP_temperature;BMP_pressure;BME280_temperature;BME280_humidity;BME280_pressure;Samples;Min_cycle;Max_cycle;Signal;HPM_P1;HPM_P2
2021/05/05 00:01:26;;;;;;;0.50;0.50;;;8.10;99.90;;;;;;4922118;28;20673;-88
2021/05/05 00:03:51;;;;;;;1.80;0.60;;;7.90;99.90;;;;;;4916244;28;20182;-88
2021/05/05 00:06:18;;;;;;;1.03;0.40;;;7.90;99.90;;;;;;4917513;28;20658;-88
2021/05/05 00:08:44;;;;;;;2.00;0.60;;;7.80;99.90;;;;;;4916390;28;20184;-88
2021/05/05 00:11:10;;;;;;;0.50;0.50;;;7.80;99.90;;;;;;4919888;29;20481;-88
2021/05/05 00:13:36;;;;;;;0.47;0.47;;;7.70;99.90;;;;;;4914588;28;20468;-88
2021/05/05 00:16:03;;;;;;;0.47;0.47;;;7.70;99.90;;;;;;4919769;29;20748;-88
2021/05/05 00:18:29;;;;;;;1.60;0.77;;;7.70;99.90;;;;;;4920852;29;20479;-89
2021/05/05 00:20:55;;;;;;;0.40;0.30;;;7.70;99.90;;;;;;4918894;28;20502;-88
2021/05/05 00:23:21;;;;;;;0.53;0.30;;;7.70;99.90;;;;;;4917388;28;20206;-89
2021/05/05 00:25:46;;;;;;;1.00;0.30;;;7.70;99.90;;;;;;4912051;28;20201;-89
2021/05/05 00:28:12;;;;;;;0.60;0.30;;;7.80;99.90;;;;;;4924480;29;20649;-88
2021/05/05 00:30:38;;;;;;;0.53;0.50;;;7.70;99.90;;;;;;4915900;28;20587;-88
2021/05/05 00:33:04;;;;;;;0.70;0.33;;;7.70;99.90;;;;;;4919047;29;20209;-87
2021/05/05 00:35:29;;;;;;;0.40;0.40;;;7.70;99.90;;;;;;4919815;29;20193;-89
2021/05/05 00:37:55;;;;;;;1.27;0.37;;;7.70;99.90;;;;;;4917453;29;20197;-90
2021/05/05 00:40:21;;;;;;;0.40;0.37;;;7.70;99.90;;;;;;4919229;29;20266;-89
2021/05/05 00:42:47;;;;;;;0.33;0.30;;;7.70;99.90;;;;;;4915946;28;20244;-89
2021/05/05 00:45:15;;;;;;;0.30;0.30;;;7.60;99.90;;;;;;4918196;29;20546;-90
2021/05/05 00:47:42;;;;;;;0.67;0.30;;;7.40;99.90;;;;;;4917558;28;20258;-89
2021/05/05 00:50:11;;;;;;;1.47;0.40;;;7.40;99.90;;;;;;4920445;29;20450;-87
2021/05/05 00:52:37;;;;;;;2.93;0.50;;;7.30;99.90;;;;;;4920082;28;20606;-87
2021/05/05 00:55:04;;;;;;;0.60;0.50;;;7.30;99.90;;;;;;4920024;29;20473;-88
2021/05/05 00:57:31;;;;;;;2.13;0.53;;;7.20;99.90;;;;;;4926012;28;20480;-88
2021/05/05 00:59:59;;;;;;;0.63;0.43;;;7.20;99.90;;;;;;4918723;29;20469;-87
2021/05/05 01:02:25;;;;;;;3.23;0.47;;;7.20;99.90;;;;;;4919164;28;20454;-88
2021/05/05 01:04:51;;;;;;;1.23;0.40;;;7.20;99.90;;;;;;4933103;28;20600;-88
2021/05/05 01:07:17;;;;;;;1.67;0.73;;;7.20;99.90;;;;;;4918994;29;20191;-88
2021/05/05 01:09:45;;;;;;;3.10;1.07;;;7.10;99.90;;;;;;4919735;29;20813;-89
2021/05/05 01:12:12;;;;;;;4.00;1.10;;;7.10;99.90;;;;;;4923217;29;20223;-87
2021/05/05 01:14:38;;;;;;;1.50;0.50;;;7.20;99.90;;;;;;4928308;28;20452;-88
2021/05/05 01:17:06;;;;;;;1.27;0.67;;;7.20;99.90;;;;;;4922467;29;20448;-88
2021/05/05 01:19:32;;;;;;;2.53;0.60;;;7.20;99.90;;;;;;4918824;28;21922;-89
2021/05/05 01:21:57;;;;;;;2.43;0.60;;;7.20;99.90;;;;;;4924433;29;20979;-89
2021/05/05 01:24:23;;;;;;;1.10;1.00;;;7.20;99.90;;;;;;4920163;28;20465;-90
2021/05/05 01:26:49;;;;;;;1.40;0.70;;;7.30;99.90;;;;;;4937779;29;20186;-90
2021/05/05 01:29:15;;;;;;;2.40;1.00;;;7.40;99.90;;;;;;4920397;28;20668;-89
2021/05/05 01:31:40;;;;;;;0.77;0.67;;;7.40;99.90;;;;;;4922402;28;20480;-89
2021/05/05 01:34:06;;;;;;;0.40;0.40;;;7.50;99.90;;;;;;4922396;29;20200;-89
2021/05/05 01:36:34;;;;;;;0.80;0.80;;;7.50;99.90;;;;;;4924027;28;20191;-89
2021/05/05 01:39:00;;;;;;;0.67;0.40;;;7.40;99.90;;;;;;4921135;28;20238;-89
2021/05/05 01:41:26;;;;;;;0.40;0.40;;;7.50;99.90;;;;;;4919542;29;20523;-90
2021/05/05 01:43:52;;;;;;;0.50;0.50;;;7.40;99.90;;;;;;4914979;29;20447;-90
2021/05/05 01:46:20;;;;;;;0.50;0.50;;;7.50;99.90;;;;;;4920343;28;20471;-89
2021/05/05 01:48:46;;;;;;;0.67;0.40;;;7.40;99.90;;;;;;4921005;29;20456;-89
2021/05/05 01:51:14;;;;;;;0.63;0.40;;;7.50;99.90;;;;;;4922326;29;20490;-89
2021/05/05 01:53:41;;;;;;;0.60;0.30;;;7.60;99.90;;;;;;4923313;29;20819;-88
2021/05/05 01:56:06;;;;;;;0.50;0.40;;;7.50;99.90;;;;;;4920490;29;20196;-88
2021/05/05 01:58:36;;;;;;;0.60;0.43;;;7.50;99.90;;;;;;4923824;29;21096;-86
2021/05/05 02:01:03;;;;;;;0.73;0.40;;;7.40;99.90;;;;;;4922179;29;20191;-86
2021/05/05 02:03:29;;;;;;;0.70;0.50;;;7.50;99.90;;;;;;4919932;28;20464;-86
2021/05/05 02:05:55;;;;;;;0.50;0.40;;;7.50;99.90;;;;;;4922122;29;20470;-86
2021/05/05 02:08:20;;;;;;;0.70;0.60;;;7.50;99.90;;;;;;4923523;29;20205;-86
2021/05/05 02:10:46;;;;;;;2.10;0.83;;;7.50;99.90;;;;;;4922722;29;20223;-87
2021/05/05 02:13:13;;;;;;;2.13;0.57;;;7.50;99.90;;;;;;4923451;28;20201;-86
2021/05/05 02:15:39;;;;;;;2.17;0.50;;;7.40;99.90;;;;;;4920627;29;20579;-86
2021/05/05 02:18:10;;;;;;;0.40;0.40;;;7.40;99.90;;;;;;4936182;28;20447;-86
2021/05/05 02:20:36;;;;;;;0.67;0.30;;;7.40;99.90;;;;;;4921751;29;20198;-87
2021/05/05 02:23:02;;;;;;;0.60;0.50;;;7.40;99.90;;;;;;4922274;29;20466;-87
2021/05/05 02:25:28;;;;;;;0.40;0.40;;;7.50;99.90;;;;;;4919871;28;20451;-86
2021/05/05 02:27:54;;;;;;;0.47;0.47;;;7.40;99.90;;;;;;4920634;28;20930;-86
2021/05/05 02:30:21;;;;;;;0.60;0.33;;;7.40;99.90;;;;;;4921586;28;20478;-86
2021/05/05 02:32:48;;;;;;;0.60;0.40;;;7.30;99.90;;;;;;4923326;28;20635;-89
2021/05/05 02:35:15;;;;;;;0.40;0.30;;;7.30;99.90;;;;;;4937867;28;20440;-89
2021/05/05 02:37:43;;;;;;;0.50;0.37;;;7.30;99.90;;;;;;4919429;28;20461;-88
2021/05/05 02:40:10;;;;;;;0.40;0.40;;;7.40;99.90;;;;;;4919748;28;20441;-87
2021/05/05 02:42:36;;;;;;;0.37;0.30;;;7.30;99.90;;;;;;4920556;29;20450;-88
2021/05/05 02:45:03;;;;;;;1.37;0.77;;;7.30;99.90;;;;;;4920499;29;20803;-88
2021/05/05 02:47:29;;;;;;;0.40;0.40;;;7.30;99.90;;;;;;4918701;29;20689;-88
2021/05/05 02:49:54;;;;;;;1.23;0.50;;;7.20;99.90;;;;;;4922470;28;20538;-88
2021/05/05 02:52:20;;;;;;;0.93;0.33;;;7.10;99.90;;;;;;4922687;28;20499;-87
2021/05/05 02:54:46;;;;;;;1.37;0.43;;;7.10;99.90;;;;;;4920098;29;20211;-88
2021/05/05 02:57:12;;;;;;;0.93;0.60;;;7.10;99.90;;;;;;4920331;29;20676;-87
2021/05/05 02:59:37;;;;;;;1.57;0.60;;;7.10;99.90;;;;;;4921441;29;20200;-88
2021/05/05 03:02:05;;;;;;;0.50;0.50;;;7.20;99.90;;;;;;4921104;28;20473;-87
2021/05/05 03:04:31;;;;;;;0.80;0.60;;;7.20;99.90;;;;;;4922109;28;20559;-88
2021/05/05 03:06:56;;;;;;;0.43;0.43;;;7.20;99.90;;;;;;4925302;29;20510;-87
2021/05/05 03:09:25;;;;;;;1.20;0.57;;;7.20;99.90;;;;;;4923165;28;20193;-88
2021/05/05 03:11:51;;;;;;;1.50;0.50;;;7.10;99.90;;;;;;4920262;28;20472;-87
2021/05/05 03:14:17;;;;;;;1.50;0.50;;;7.10;99.90;;;;;;4937980;28;20453;-87
2021/05/05 03:16:43;;;;;;;0.67;0.40;;;7.10;99.90;;;;;;4921879;29;20448;-88
2021/05/05 03:19:11;;;;;;;0.73;0.73;;;7.00;99.90;;;;;;4921641;29;20198;-88
2021/05/05 03:21:40;;;;;;;1.13;0.70;;;7.00;99.90;;;;;;4920558;28;20677;-88
2021/05/05 03:24:06;;;;;;;0.80;0.50;;;7.00;99.90;;;;;;4935483;28;20541;-88
2021/05/05 03:26:32;;;;;;;0.97;0.80;;;7.00;99.90;;;;;;4921621;28;20455;-88
2021/05/05 03:28:58;;;;;;;0.60;0.60;;;7.10;99.90;;;;;;4922276;29;20442;-90
2021/05/05 03:31:40;;;;;;;1.60;0.43;;;7.00;99.90;;;;;;4917566;29;20600;-87
2021/05/05 03:34:08;;;;;;;0.67;0.50;;;7.00;99.90;;;;;;4914041;28;20814;-87
2021/05/05 03:36:34;;;;;;;0.87;0.60;;;7.00;99.90;;;;;;4917064;28;20858;-88
2021/05/05 03:39:02;;;;;;;1.13;0.80;;;7.10;99.90;;;;;;4919542;28;20477;-87
2021/05/05 03:41:29;;;;;;;0.90;0.70;;;7.00;99.90;;;;;;4913984;29;20208;-87
2021/05/05 03:43:54;;;;;;;0.70;0.70;;;6.90;99.90;;;;;;4915430;28;20538;-87
2021/05/05 03:46:20;;;;;;;0.50;0.50;;;6.90;99.90;;;;;;4917759;28;20453;-87
2021/05/05 03:48:46;;;;;;;1.90;0.87;;;7.00;99.90;;;;;;4915306;29;20340;-87
2021/05/05 03:51:12;;;;;;;1.23;0.80;;;6.90;99.90;;;;;;4919733;28;20228;-87
2021/05/05 03:53:38;;;;;;;0.70;0.50;;;6.90;99.90;;;;;;4917616;28;20449;-87
2021/05/05 03:56:04;;;;;;;0.40;0.40;;;6.90;99.90;;;;;;4947069;28;20276;-87
2021/05/05 03:58:29;;;;;;;0.50;0.47;;;6.90;99.90;;;;;;4918783;29;20209;-87
2021/05/05 04:00:55;;;;;;;0.87;0.50;;;6.90;99.90;;;;;;4915038;28;20492;-89
2021/05/05 04:03:21;;;;;;;1.27;0.80;;;7.00;99.90;;;;;;4915893;28;21160;-89
2021/05/05 04:05:47;;;;;;;1.63;0.53;;;7.00;99.90;;;;;;4920351;28;20473;-89
2021/05/05 04:08:13;;;;;;;0.97;0.87;;;6.90;99.90;;;;;;4918641;28;20203;-88
2021/05/05 04:10:39;;;;;;;0.93;0.60;;;6.90;99.90;;;;;;4910541;28;20226;-90
2021/05/05 04:13:04;;;;;;;3.70;0.70;;;6.90;99.90;;;;;;4909398;28;20205;-87
2021/05/05 04:15:31;;;;;;;1.10;0.60;;;6.90;99.90;;;;;;4915128;28;20523;-88
2021/05/05 04:17:57;;;;;;;1.23;0.60;;;6.80;99.90;;;;;;4914968;28;20221;-89
2021/05/05 04:20:32;;;;;;;1.70;0.80;;;6.70;99.90;;;;;;4919747;28;21063;-90
2021/05/05 04:22:58;;;;;;;1.27;0.70;;;6.70;99.90;;;;;;4910525;28;20438;-88
2021/05/05 04:25:26;;;;;;;1.13;0.87;;;6.70;99.90;;;;;;4912533;28;20449;-90
2021/05/05 04:27:52;;;;;;;2.37;0.80;;;6.70;99.90;;;;;;4915208;28;20446;-90
2021/05/05 04:30:19;;;;;;;1.80;0.90;;;6.70;99.90;;;;;;4930466;28;20522;-90
2021/05/05 04:32:49;;;;;;;1.83;0.70;;;6.80;99.90;;;;;;4916195;28;20465;-90
2021/05/05 04:35:16;;;;;;;0.60;0.60;;;6.80;99.90;;;;;;4906872;29;20572;-90
2021/05/05 04:37:42;;;;;;;0.87;0.80;;;6.80;99.90;;;;;;4919837;29;20486;-90
2021/05/05 04:40:08;;;;;;;3.37;1.53;;;6.80;99.90;;;;;;4920093;28;20514;-89
2021/05/05 04:42:35;;;;;;;0.80;0.80;;;6.80;99.90;;;;;;4924244;28;20203;-89
2021/05/05 04:45:03;;;;;;;1.00;0.80;;;6.80;99.90;;;;;;4926867;29;20468;-90
2021/05/05 04:47:30;;;;;;;1.23;0.60;;;6.80;99.90;;;;;;4931122;28;20458;-90
2021/05/05 04:49:56;;;;;;;0.67;0.67;;;6.80;99.90;;;;;;4932545;28;20456;-90
2021/05/05 04:52:21;;;;;;;1.10;0.60;;;6.70;99.90;;;;;;4918804;28;20483;-90
2021/05/05 04:54:47;;;;;;;1.17;0.80;;;6.80;99.90;;;;;;4917618;29;20203;-91
2021/05/05 04:57:13;;;;;;;1.00;0.53;;;6.80;99.90;;;;;;4917340;29;20254;-89
2021/05/05 04:59:38;;;;;;;1.27;0.53;;;6.90;99.90;;;;;;4918970;29;20200;-88
2021/05/05 05:02:04;;;;;;;1.03;0.80;;;7.00;99.90;;;;;;4923862;29;20196;-87
2021/05/05 05:04:30;;;;;;;1.67;0.90;;;7.00;99.90;;;;;;4909931;28;20267;-88
2021/05/05 05:06:56;;;;;;;0.70;0.60;;;7.00;99.90;;;;;;4924071;29;20208;-87
2021/05/05 05:09:21;;;;;;;0.90;0.90;;;6.90;99.90;;;;;;4924359;28;20210;-89
2021/05/05 05:11:47;;;;;;;2.63;1.77;;;6.90;99.90;;;;;;4919864;29;20606;-89
2021/05/05 05:14:21;;;;;;;1.13;0.80;;;6.90;99.90;;;;;;4914830;29;20543;-89
2021/05/05 05:17:02;;;;;;;1.40;1.30;;;6.90;99.90;;;;;;4920173;28;20466;-88
2021/05/05 05:19:27;;;;;;;1.60;0.70;;;6.90;99.90;;;;;;4916583;29;20992;-89
2021/05/05 05:21:53;;;;;;;1.30;0.70;;;7.00;99.90;;;;;;4919526;29;20484;-89
2021/05/05 05:24:19;;;;;;;1.27;0.60;;;7.00;99.90;;;;;;4918815;29;20664;-88
2021/05/05 05:26:45;;;;;;;0.77;0.57;;;7.00;99.90;;;;;;4912912;28;21229;-89
2021/05/05 05:29:11;;;;;;;0.70;0.70;;;7.00;99.90;;;;;;4923468;28;21409;-89
2021/05/05 05:31:37;;;;;;;1.50;1.00;;;7.10;99.90;;;;;;4918507;28;20621;-87
2021/05/05 05:34:03;;;;;;;0.60;0.60;;;7.20;99.90;;;;;;4919286;28;20457;-88
2021/05/05 05:36:28;;;;;;;1.70;1.10;;;7.30;99.90;;;;;;4924513;29;20276;-88
2021/05/05 05:38:54;;;;;;;0.70;0.70;;;7.30;99.90;;;;;;4920759;29;20473;-88
2021/05/05 05:41:20;;;;;;;0.97;0.70;;;7.40;99.90;;;;;;4919291;28;20527;-88
2021/05/05 05:43:46;;;;;;;1.33;0.87;;;7.40;99.90;;;;;;4923766;28;20194;-89
2021/05/05 05:46:11;;;;;;;1.23;0.67;;;7.40;99.90;;;;;;4922547;29;20648;-89
2021/05/05 05:48:37;;;;;;;0.63;0.50;;;7.30;99.90;;;;;;4921017;28;20192;-88
2021/05/05 05:51:03;;;;;;;0.70;0.70;;;7.30;99.90;;;;;;4922845;28;20219;-88
2021/05/05 05:53:29;;;;;;;12.30;2.17;;;7.30;99.90;;;;;;4918051;28;20734;-89
2021/05/05 05:55:55;;;;;;;14.37;3.40;;;7.30;99.90;;;;;;4937947;28;20802;-91
2021/05/05 05:58:23;;;;;;;2.60;0.97;;;7.40;99.90;;;;;;4925891;29;20184;-88
2021/05/05 06:00:49;;;;;;;1.23;0.80;;;7.40;99.90;;;;;;4923904;28;20223;-87
2021/05/05 06:03:14;;;;;;;0.80;0.73;;;7.50;99.90;;;;;;4926649;28;20478;-91
2021/05/05 06:05:40;;;;;;;2.33;0.50;;;7.50;99.90;;;;;;4923326;28;20197;-90
2021/05/05 06:08:06;;;;;;;0.40;0.40;;;7.50;99.90;;;;;;4925032;29;20194;-90
2021/05/05 06:10:32;;;;;;;1.27;0.80;;;7.50;99.90;;;;;;4924207;28;20670;-90
2021/05/05 06:12:58;;;;;;;2.93;0.80;;;7.50;99.90;;;;;;4921660;29;20444;-89
2021/05/05 06:15:24;;;;;;;0.83;0.80;;;7.60;99.90;;;;;;4923829;29;20452;-88
2021/05/05 06:17:50;;;;;;;4.20;1.10;;;7.50;99.90;;;;;;4925940;28;20191;-89
2021/05/05 06:20:16;;;;;;;1.90;0.97;;;7.50;99.90;;;;;;4927327;29;21006;-90
2021/05/05 06:22:42;;;;;;;4.43;2.03;;;7.50;99.90;;;;;;4924330;28;20435;-89
2021/05/05 06:25:09;;;;;;;2.83;1.10;;;7.50;99.90;;;;;;4925932;28;20454;-89
2021/05/05 06:27:35;;;;;;;1.40;1.30;;;7.50;99.90;;;;;;4922145;28;20456;-90
2021/05/05 06:30:06;;;;;;;3.60;1.10;;;7.50;99.90;;;;;;4922938;29;20585;-89
2021/05/05 06:32:31;;;;;;;1.70;0.87;;;7.50;99.90;;;;;;4920706;29;21244;-90
2021/05/05 06:34:57;;;;;;;1.10;0.80;;;7.50;99.90;;;;;;4924994;29;20428;-87
2021/05/05 06:37:37;;;;;;;2.73;0.90;;;7.50;99.90;;;;;;4926111;29;20213;-87
2021/05/05 06:40:10;;;;;;;1.27;1.00;;;7.60;99.90;;;;;;4940194;28;20606;-89
2021/05/05 06:42:36;;;;;;;2.23;1.40;;;7.60;99.90;;;;;;4906731;29;20875;-91
2021/05/05 06:45:06;;;;;;;1.07;0.90;;;7.60;99.90;;;;;;4942629;28;20462;-92
2021/05/05 06:47:32;;;;;;;4.77;3.87;;;7.50;99.90;;;;;;4921085;28;20467;-91
2021/05/05 06:49:58;;;;;;;2.13;1.93;;;7.50;99.90;;;;;;4926701;29;20462;-90
2021/05/05 06:52:24;;;;;;;0.87;0.70;;;7.70;99.90;;;;;;4924728;29;20544;-92
2021/05/05 06:54:49;;;;;;;0.97;0.63;;;7.70;99.90;;;;;;4925540;28;20205;-95
2021/05/05 06:57:15;;;;;;;2.37;0.90;;;7.80;99.90;;;;;;4922057;29;20212;-91
2021/05/05 06:59:41;;;;;;;3.80;1.17;;;7.80;99.90;;;;;;4925459;29;20188;-91
2021/05/05 07:02:32;;;;;;;1.80;0.90;;;7.80;99.90;;;;;;4928350;28;20461;-95
2021/05/05 07:05:15;;;;;;;1.70;1.10;;;7.80;99.90;;;;;;4935476;29;20208;-96
2021/05/05 07:07:58;;;;;;;1.63;1.03;;;7.90;99.90;;;;;;4955730;28;20483;-96
2021/05/05 08:04:58;;;;;;;2.30;1.73;;;9.00;99.90;;;;;;4954746;28;24051;-88
2021/05/05 08:07:42;;;;;;;6.57;3.17;;;9.30;99.90;;;;;;4942942;28;20450;-89
2021/05/05 08:10:11;;;;;;;9.13;2.37;;;9.20;99.90;;;;;;4940198;28;20292;-88
2021/05/05 08:12:37;;;;;;;8.00;3.53;;;9.30;99.90;;;;;;4936328;28;20568;-90
2021/05/05 08:15:04;;;;;;;5.33;3.20;;;9.00;98.80;;;;;;4955108;28;20480;-89
2021/05/05 08:17:30;;;;;;;4.73;2.70;;;9.10;98.10;;;;;;4933654;28;20182;-92
2021/05/05 08:19:56;;;;;;;4.43;2.03;;;9.30;95.50;;;;;;4942554;28;20472;-89
2021/05/05 08:22:21;;;;;;;12.80;1.93;;;9.40;96.60;;;;;;4941088;28;20455;-86
2021/05/05 08:24:47;;;;;;;3.50;1.40;;;9.70;97.90;;;;;;4940693;28;20449;-92
2021/05/05 08:27:13;;;;;;;2.03;1.37;;;10.00;94.40;;;;;;4947317;28;20191;-95
2021/05/05 08:29:38;;;;;;;8.60;1.90;;;10.20;94.80;;;;;;4942608;28;20216;-91
2021/05/05 08:32:06;;;;;;;5.00;1.60;;;10.10;93.60;;;;;;4927390;28;20308;-93
2021/05/05 08:34:33;;;;;;;3.77;1.77;;;10.20;93.20;;;;;;4957300;28;20205;-91
2021/05/05 08:36:59;;;;;;;3.87;1.37;;;10.30;93.40;;;;;;4947916;28;20509;-86
2021/05/05 08:39:25;;;;;;;1.77;1.67;;;10.00;94.30;;;;;;4936446;28;20467;-94
2021/05/05 08:41:52;;;;;;;7.13;3.87;;;9.90;95.70;;;;;;4938190;28;20824;-95
2021/05/05 08:44:19;;;;;;;4.43;1.47;;;9.90;95.90;;;;;;4943486;28;21570;-94
2021/05/05 08:46:46;;;;;;;5.17;1.27;;;9.70;95.20;;;;;;4938038;28;20561;-90
2021/05/05 08:49:13;;;;;;;8.80;4.97;;;9.70;95.90;;;;;;4945191;28;20446;-89
2021/05/05 08:51:39;;;;;;;4.60;2.10;;;9.60;96.00;;;;;;4960300;28;20481;-90
2021/05/05 08:54:07;;;;;;;4.10;1.30;;;9.70;96.00;;;;;;4940623;28;20453;-94
2021/05/05 08:56:37;;;;;;;5.50;2.20;;;9.60;96.00;;;;;;4943493;28;20956;-87
2021/05/05 08:59:04;;;;;;;3.97;1.13;;;9.40;95.70;;;;;;4951958;28;20864;-89
2021/05/05 09:01:33;;;;;;;5.13;1.67;;;9.00;96.10;;;;;;4943928;28;20446;-89
2021/05/05 09:03:59;;;;;;;3.50;1.47;;;8.80;97.00;;;;;;4942703;28;20989;-90
2021/05/05 09:09:46;;;;;;;1.47;1.30;;;8.60;98.50;;;;;;4958578;28;20501;-88
2021/05/05 09:12:25;;;;;;;1.90;1.17;;;8.50;99.90;;;;;;4941767;28;20524;-88
2021/05/05 09:14:55;;;;;;;6.07;2.23;;;8.60;99.90;;;;;;4965298;28;20460;-90
2021/05/05 09:17:32;;;;;;;1.57;1.30;;;8.90;99.90;;;;;;4952987;28;20803;-88
2021/05/05 09:20:04;;;;;;;4.30;1.63;;;9.50;99.90;;;;;;4954704;28;20432;-91
2021/05/05 09:22:40;;;;;;;1.57;0.80;;;9.20;99.80;;;;;;4960829;28;20438;-90
2021/05/05 09:25:10;;;;;;;5.03;1.37;;;9.00;99.50;;;;;;4947295;28;21010;-89
2021/05/05 09:27:39;;;;;;;4.67;1.50;;;9.00;99.90;;;;;;4945794;28;20443;-90
2021/05/05 09:30:27;;;;;;;2.10;1.27;;;9.40;99.60;;;;;;4949051;28;20453;-89
2021/05/05 09:32:55;;;;;;;2.10;0.97;;;9.60;98.70;;;;;;4940322;28;20452;-86
2021/05/05 09:35:36;;;;;;;1.50;1.10;;;9.70;96.00;;;;;;4947164;28;20449;-86
2021/05/05 09:38:10;;;;;;;1.43;1.00;;;9.50;94.50;;;;;;4946848;28;20791;-88
2021/05/05 09:40:53;;;;;;;2.37;1.20;;;9.40;95.30;;;;;;4943590;28;20463;-88
2021/05/05 09:43:19;;;;;;;3.27;1.07;;;10.10;94.80;;;;;;4937392;28;20471;-86
2021/05/05 09:45:45;;;;;;;1.07;0.80;;;10.10;92.00;;;;;;4954314;28;20500;-88
2021/05/05 09:48:13;;;;;;;1.83;0.90;;;9.70;92.30;;;;;;4947967;28;20442;-90
2021/05/05 09:50:40;;;;;;;2.00;1.20;;;10.00;92.20;;;;;;4941646;28;20581;-89
2021/05/05 09:53:22;;;;;;;4.80;1.43;;;10.10;92.80;;;;;;4952446;28;20526;-90
2021/05/05 09:55:51;;;;;;;1.33;1.17;;;10.20;92.30;;;;;;4948522;28;20460;-92
2021/05/05 09:58:23;;;;;;;2.90;1.00;;;10.60;90.10;;;;;;4945740;28;20636;-90
2021/05/05 10:01:10;;;;;;;8.60;1.40;;;10.80;86.00;;;;;;4952108;28;20471;-91
2021/05/05 10:03:52;;;;;;;3.60;1.20;;;10.70;87.30;;;;;;4962151;28;20455;-92
2021/05/05 10:06:27;;;;;;;1.90;1.10;;;10.70;86.90;;;;;;4964948;28;20468;-95
2021/05/05 10:09:03;;;;;;;2.20;1.20;;;10.70;88.60;;;;;;4949782;28;20429;-92
2021/05/05 10:11:35;;;;;;;2.10;1.07;;;11.10;86.70;;;;;;4940769;28;20485;-91
2021/05/05 10:14:08;;;;;;;4.60;1.50;;;11.20;82.00;;;;;;4946187;28;21803;-90
2021/05/05 10:16:36;;;;;;;1.50;1.40;;;10.80;80.50;;;;;;4941722;28;20467;-90
2021/05/05 10:19:07;;;;;;;2.67;1.00;;;10.90;83.10;;;;;;4950612;28;20445;-95
2021/05/05 10:21:35;;;;;;;3.07;1.17;;;11.10;85.00;;;;;;4949809;28;20453;-90
2021/05/05 10:24:01;;;;;;;3.80;1.50;;;11.60;82.50;;;;;;4945352;28;20529;-93
2021/05/05 10:26:28;;;;;;;9.00;1.20;;;11.20;77.00;;;;;;4947312;28;20461;-93
2021/05/05 10:28:55;;;;;;;1.93;0.93;;;11.20;75.60;;;;;;4960061;28;20447;-91
2021/05/05 10:31:24;;;;;;;1.63;1.07;;;11.40;76.90;;;;;;4944385;28;20618;-91
2021/05/05 10:33:54;;;;;;;1.60;1.10;;;11.30;72.00;;;;;;4949714;28;20958;-91
2021/05/05 10:36:51;;;;;;;2.30;1.10;;;11.50;73.50;;;;;;4979074;28;20551;-92
2021/05/05 10:39:21;;;;;;;2.03;1.37;;;11.40;72.80;;;;;;4961219;28;20993;-91
2021/05/05 10:42:02;;;;;;;1.10;1.00;;;12.10;74.10;;;;;;4940669;28;20469;-89
2021/05/05 10:44:59;;;;;;;4.97;1.47;;;12.30;70.90;;;;;;4944678;28;20510;-88
2021/05/05 10:53:43;;;;;;;1.17;0.70;;;11.40;67.00;;;;;;4956316;28;20508;-88
2021/05/05 10:56:28;;;;;;;2.53;1.23;;;11.00;69.50;;;;;;4973025;28;20561;-92
2021/05/05 10:58:59;;;;;;;1.63;1.10;;;11.00;72.10;;;;;;4943293;28;20445;-91
2021/05/05 11:01:45;;;;;;;2.27;1.03;;;11.40;73.90;;;;;;4942304;28;20548;-90
2021/05/05 11:05:04;;;;;;;2.20;1.20;;;11.90;70.20;;;;;;4957161;28;21087;-86
2021/05/05 11:07:50;;;;;;;1.13;1.00;;;12.60;69.30;;;;;;4942713;28;20460;-90
2021/05/05 11:10:37;;;;;;;4.40;0.90;;;12.90;67.50;;;;;;4940404;28;20530;-88
2021/05/05 11:13:18;;;;;;;1.60;1.00;;;11.60;63.80;;;;;;4941833;28;20501;-87
2021/05/05 11:15:44;;;;;;;0.80;0.80;;;11.00;72.50;;;;;;4951815;28;20541;-90
2021/05/05 11:18:40;;;;;;;1.43;0.90;;;9.80;94.40;;;;;;4935004;28;20547;-89
2021/05/05 11:21:32;;;;;;;2.10;0.97;;;7.70;99.90;;;;;;4925733;28;20214;-88
2021/05/05 11:24:00;;;;;;;0.77;0.77;;;7.10;99.90;;;;;;4947135;28;20485;-88
2021/05/05 11:26:32;;;;;;;1.20;1.10;;;7.20;99.90;;;;;;4941270;28;20506;-85
2021/05/05 11:29:03;;;;;;;1.60;0.67;;;7.30;99.90;;;;;;4953560;28;20499;-87
2021/05/05 11:32:08;;;;;;;1.47;0.63;;;7.30;99.90;;;;;;4941732;28;20916;-83
2021/05/05 11:34:38;;;;;;;2.27;0.60;;;7.30;99.90;;;;;;4941069;28;20811;-86
2021/05/05 11:37:10;;;;;;;1.03;0.73;;;7.10;99.90;;;;;;4945087;28;20469;-84
2021/05/05 11:39:37;;;;;;;1.50;0.63;;;7.40;99.90;;;;;;4939735;28;20447;-86
2021/05/05 11:42:24;;;;;;;0.67;0.47;;;8.00;99.90;;;;;;4938871;28;20452;-84
2021/05/05 11:44:55;;;;;;;1.50;0.70;;;7.90;99.90;;;;;;4929665;28;20438;-85
2021/05/05 11:47:32;;;;;;;1.93;0.53;;;7.90;99.90;;;;;;4942962;28;20510;-84
2021/05/05 11:50:05;;;;;;;1.20;0.90;;;7.60;99.90;;;;;;4940029;28;20453;-85
2021/05/05 11:52:32;;;;;;;1.13;0.70;;;7.80;99.90;;;;;;4940140;28;20482;-85
2021/05/05 11:55:00;;;;;;;0.70;0.63;;;8.30;99.90;;;;;;4940940;28;20460;-86
2021/05/05 11:57:31;;;;;;;0.97;0.80;;;8.40;99.50;;;;;;4941448;28;20455;-88
2021/05/05 12:00:39;;;;;;;1.03;0.87;;;8.30;99.90;;;;;;4952751;28;20456;-87
2021/05/05 12:03:07;;;;;;;2.10;0.63;;;8.10;99.90;;;;;;4939431;28;20541;-88
2021/05/05 12:06:15;;;;;;;0.70;0.70;;;8.10;99.90;;;;;;4938465;28;20457;-91
2021/05/05 12:08:43;;;;;;;1.80;0.70;;;8.00;99.90;;;;;;4957461;28;20449;-93
2021/05/05 12:11:09;;;;;;;1.07;0.60;;;8.30;99.90;;;;;;4949883;28;20477;-90
2021/05/05 12:13:40;;;;;;;1.00;0.60;;;8.90;97.90;;;;;;4945023;28;20800;-90
2021/05/05 12:16:06;;;;;;;1.50;0.63;;;9.50;95.90;;;;;;4947960;28;20194;-90
2021/05/05 12:18:35;;;;;;;3.03;0.77;;;10.00;94.50;;;;;;4944825;28;20428;-92
2021/05/05 12:21:09;;;;;;;2.83;0.70;;;10.10;93.90;;;;;;4963904;28;20449;-92
2021/05/05 12:23:40;;;;;;;0.70;0.70;;;10.50;94.40;;;;;;4945806;28;20457;-93
2021/05/05 12:26:22;;;;;;;1.87;0.70;;;10.90;92.50;;;;;;4941571;28;20470;-92
2021/05/05 12:28:49;;;;;;;0.83;0.60;;;10.80;92.70;;;;;;4943133;28;20458;-90
2021/05/05 12:31:18;;;;;;;3.00;0.77;;;11.00;92.70;;;;;;4961383;28;20473;-89
2021/05/05 12:33:49;;;;;;;1.37;0.70;;;11.20;92.70;;;;;;4940814;28;20560;-89
2021/05/05 12:36:35;;;;;;;3.47;1.17;;;11.50;92.00;;;;;;4944187;28;20469;-91
2021/05/05 12:39:16;;;;;;;0.60;0.57;;;11.50;92.00;;;;;;4937699;28;20610;-90
2021/05/05 12:41:53;;;;;;;2.97;0.90;;;11.10;91.20;;;;;;4961427;28;20509;-89
2021/05/05 12:44:20;;;;;;;8.17;0.90;;;11.50;91.90;;;;;;4942748;28;21170;-94
2021/05/05 12:47:22;;;;;;;1.53;0.70;;;11.80;92.50;;;;;;4945632;28;20532;-92
2021/05/05 12:49:42;;;;;;;2.40;0.70;;;12.00;90.60;;;;;;4961528;28;21147;-91
2021/05/05 12:52:24;;;;;;;1.00;0.80;;;12.10;88.00;;;;;;4953640;28;20495;-91
2021/05/05 12:54:50;;;;;;;1.17;0.77;;;12.20;88.30;;;;;;4957130;28;20462;-90
2021/05/05 12:57:17;;;;;;;1.33;1.00;;;12.80;88.80;;;;;;4951206;28;20453;-92
2021/05/05 12:59:45;;;;;;;1.70;1.00;;;13.20;86.80;;;;;;4928663;28;20541;-89
2021/05/05 13:02:16;;;;;;;1.03;0.80;;;12.70;87.50;;;;;;4950566;28;20453;-91
2021/05/05 13:04:44;;;;;;;3.33;0.90;;;12.70;89.30;;;;;;4960451;28;20580;-88
2021/05/05 13:07:25;;;;;;;0.87;0.70;;;12.50;89.50;;;;;;4948997;28;20446;-91
2021/05/05 13:10:24;;;;;;;1.70;0.93;;;11.70;90.40;;;;;;4968294;28;20461;-91
2021/05/05 13:13:21;;;;;;;1.50;1.03;;;11.20;92.70;;;;;;4931501;28;21286;-91
2021/05/05 13:30:15;;;;;;;1.20;1.10;;;10.70;93.90;;;;;;4900423;29;20477;-92
2021/05/05 13:33:05;;;;;;;3.80;1.30;;;10.80;94.20;;;;;;4980565;28;20476;-95
2021/05/05 13:35:41;;;;;;;1.80;1.00;;;11.00;93.00;;;;;;4969439;28;20452;-94
2021/05/05 13:38:22;;;;;;;4.50;1.10;;;11.00;92.70;;;;;;4944976;28;20546;-94
2021/05/05 13:40:52;;;;;;;1.67;0.90;;;11.10;92.90;;;;;;4963521;28;20463;-89
2021/05/05 13:43:54;;;;;;;1.47;0.90;;;11.50;91.30;;;;;;4948530;28;20457;-93
2021/05/05 13:48:50;;;;;;;4.10;1.20;;;10.90;93.30;;;;;;4955459;28;20992;-86
2021/05/05 13:51:18;;;;;;;0.80;0.60;;;10.50;93.00;;;;;;4946461;28;20222;-85
2021/05/05 13:53:46;;;;;;;1.03;0.73;;;10.10;91.20;;;;;;4937811;28;20442;-88
2021/05/05 13:56:18;;;;;;;4.00;0.80;;;9.60;94.90;;;;;;4946158;28;20451;-88
2021/05/05 13:58:48;;;;;;;0.97;0.77;;;8.90;97.30;;;;;;4950904;28;20489;-88
2021/05/05 14:01:15;;;;;;;0.80;0.73;;;8.80;99.40;;;;;;4948435;28;20557;-85
2021/05/05 14:03:42;;;;;;;0.80;0.50;;;8.80;99.90;;;;;;4942209;28;20457;-85
2021/05/05 14:06:10;;;;;;;0.53;0.50;;;11.10;96.70;;;;;;4940455;28;20568;-86
2021/05/05 14:08:36;;;;;;;0.80;0.60;;;12.50;92.30;;;;;;4940532;28;20533;-83
2021/05/05 14:11:12;;;;;;;1.03;0.70;;;13.00;90.60;;;;;;4942712;28;20488;-91
2021/05/05 14:13:38;;;;;;;1.77;0.80;;;13.50;84.80;;;;;;4952506;28;20209;-88
2021/05/05 14:16:04;;;;;;;0.70;0.70;;;14.40;81.90;;;;;;4936233;28;20446;-90
2021/05/05 14:18:30;;;;;;;1.07;0.80;;;13.30;78.80;;;;;;4945171;28;20453;-88
2021/05/05 14:21:35;;;;;;;5.00;0.93;;;13.00;82.40;;;;;;4936685;28;20449;-90
2021/05/05 14:24:04;;;;;;;1.00;0.90;;;12.40;82.50;;;;;;4939453;28;20224;-91
2021/05/05 14:26:30;;;;;;;0.70;0.70;;;11.70;86.20;;;;;;4939394;28;20473;-89
2021/05/05 14:28:55;;;;;;;0.80;0.80;;;11.30;89.00;;;;;;4940228;28;20909;-90
2021/05/05 14:31:21;;;;;;;2.10;1.10;;;11.60;91.00;;;;;;4938386;28;20793;-91